Tampico, Montana
Current Conditions -  °F | °C
As of 2:07 PM on Wednesday 26 Nov 2014 (Local Time) from KGGW Reporting Station
Overcast Overcast  
Wind Chill: 12°   Ceiling: 1700
Heat Index: 23°   Visibility: 10mi
Dew Point: 16°   Wind: 12mph
Humidity: 74%   Direction: 110°ESE
Pressure: 30.28"   Gusts: NA
Location:  48.3775°N, 106.613°W
Report Text: KGGW 262107Z AUTO 11010KT 10SM OVC017 M05/M09 A3028 RMK AO2 T10501089
Loading
Personal Weather Stations






























Interactive Weather Map New forecast layout! Learn more

10-Day Weather Forecast

Advertisements
Track Severe Weather on mobile